Time;durP1;ratioP1;P1;durP2;ratioP2;P2;SDS_P1;SDS_P2;PMS_P1;PMS_P2;Temp;Humidity;BMP_temperature;BMP_pressure;BME280_temperature;BME280_humidity;BME280_pressure;Samples;Min_cycle;Max_cycle;Signal;HPM_P1;HPM_P2
2023/04/26 00:01:53;;;;;;;;;;;;;;;;;;6141311;23;19925;-87
2023/04/26 00:04:27;;;;;;;;;;;;;;;;;;6069358;23;19929;-88
2023/04/26 00:07:19;;;;;;;;;;;;;;;;;;6119929;23;19921;-89
2023/04/26 00:12:35;;;;;;;;;;;;;;;;;;6157601;23;19963;-89
2023/04/26 00:15:01;;;;;;;;;;;;;;;;;;6150119;23;19919;-90
2023/04/26 00:17:27;;;;;;;;;;;;;;;;;;6153641;23;19927;-90
2023/04/26 00:20:01;;;;;;;;;;;;;;;;;;6182376;22;19924;-89
2023/04/26 00:22:27;;;;;;;;;;;;;;;;;;6237226;22;19919;-89
2023/04/26 00:24:53;;;;;;;;;;;;;;;;;;6210298;22;20446;-89
2023/04/26 00:27:19;;;;;;;;;;;;;;;;;;6208452;22;19923;-88
2023/04/26 00:29:45;;;;;;;;;;;;;;;;;;6235931;22;19926;-89
2023/04/26 00:32:11;;;;;;;;;;;;;;;;;;6208587;22;19927;-88
2023/04/26 00:34:37;;;;;;;;;;;;;;;;;;6237416;22;19947;-88
2023/04/26 00:37:03;;;;;;;;;;;;;;;;;;6208065;22;19961;-88
2023/04/26 00:39:37;;;;;;;;;;;;;;;;;;6208798;22;19929;-88
2023/04/26 00:42:03;;;;;;;;;;;;;;;;;;6209700;22;20336;-89
2023/04/26 00:44:29;;;;;;;;;;;;;;;;;;6238043;22;19957;-88
2023/04/26 00:46:55;;;;;;;;;;;;;;;;;;6237112;22;19998;-89
2023/04/26 00:49:21;;;;;;;;;;;;;;;;;;6209306;22;19919;-88
2023/04/26 00:51:47;;;;;;;;;;;;;;;;;;6235515;22;20264;-89
2023/04/26 00:54:13;;;;;;;;;;;;;;;;;;6208667;22;19951;-88
2023/04/26 00:56:39;;;;;;;;;;;;;;;;;;6210888;22;19926;-89
2023/04/26 00:59:05;;;;;;;;;;;;;;;;;;6234239;22;19919;-89
2023/04/26 01:01:31;;;;;;;;;;;;;;;;;;6209193;22;19919;-89
2023/04/26 01:03:57;;;;;;;;;;;;;;;;;;6233563;22;19931;-88
2023/04/26 01:06:23;;;;;;;;;;;;;;;;;;6209904;22;20002;-88
2023/04/26 01:08:49;;;;;;;;;;;;;;;;;;6236426;22;20419;-88
2023/04/26 01:11:15;;;;;;;;;;;;;;;;;;6233814;22;19923;-89
2023/04/26 01:13:41;;;;;;;;;;;;;;;;;;6212413;22;19919;-88
2023/04/26 01:16:07;;;;;;;;;;;;;;;;;;6207148;22;19922;-89
2023/04/26 01:18:33;;;;;;;;;;;;;;;;;;6210817;22;20246;-89
2023/04/26 01:20:59;;;;;;;;;;;;;;;;;;6207124;22;20018;-88
2023/04/26 01:23:25;;;;;;;;;;;;;;;;;;6236041;22;19926;-89
2023/04/26 01:25:51;;;;;;;;;;;;;;;;;;6234789;22;19920;-88
2023/04/26 01:28:17;;;;;;;;;;;;;;;;;;6233492;22;19927;-88
2023/04/26 01:30:43;;;;;;;;;;;;;;;;;;6235250;22;19965;-88
2023/04/26 01:33:09;;;;;;;;;;;;;;;;;;6206807;22;20028;-88
2023/04/26 01:35:35;;;;;;;;;;;;;;;;;;6232815;22;19951;-88
2023/04/26 01:38:03;;;;;;;;;;;;;;;;;;6209975;22;19969;-88
2023/04/26 01:40:29;;;;;;;;;;;;;;;;;;6211845;22;19949;-88
2023/04/26 01:42:55;;;;;;;;;;;;;;;;;;6238701;22;19916;-88
2023/04/26 01:45:20;;;;;;;;;;;;;;;;;;6235605;22;19927;-89
2023/04/26 01:47:46;;;;;;;;;;;;;;;;;;6238945;22;20355;-89
2023/04/26 01:50:12;;;;;;;;;;;;;;;;;;6209923;22;19998;-88
2023/04/26 01:52:38;;;;;;;;;;;;;;;;;;6212065;22;19919;-88
2023/04/26 01:55:04;;;;;;;;;;;;;;;;;;6210201;22;19972;-88
2023/04/26 01:57:30;;;;;;;;;;;;;;;;;;6213891;22;19919;-88
2023/04/26 01:59:58;;;;;;;;;;;;;;;;;;6237127;22;19919;-88
2023/04/26 02:02:24;;;;;;;;;;;;;;;;;;6213856;22;19920;-89
2023/04/26 02:04:50;;;;;;;;;;;;;;;;;;6238041;22;19923;-88
2023/04/26 02:07:16;;;;;;;;;;;;;;;;;;6236307;22;20557;-88
2023/04/26 02:09:42;;;;;;;;;;;;;;;;;;6208059;22;19962;-88
2023/04/26 02:12:08;;;;;;;;;;;;;;;;;;6232901;22;19923;-88
2023/04/26 02:14:33;;;;;;;;;;;;;;;;;;6210908;22;20294;-87
2023/04/26 02:17:00;;;;;;;;;;;;;;;;;;6207532;22;19972;-88
2023/04/26 02:19:26;;;;;;;;;;;;;;;;;;6208156;22;19919;-89
2023/04/26 02:21:52;;;;;;;;;;;;;;;;;;6235019;22;20539;-88
2023/04/26 02:24:18;;;;;;;;;;;;;;;;;;6205512;22;19919;-88
2023/04/26 02:26:44;;;;;;;;;;;;;;;;;;6209562;22;19919;-87
2023/04/26 02:29:10;;;;;;;;;;;;;;;;;;6208052;22;19915;-88
2023/04/26 02:31:36;;;;;;;;;;;;;;;;;;6209307;22;19929;-88
2023/04/26 02:34:02;;;;;;;;;;;;;;;;;;6207183;22;19990;-88
2023/04/26 02:36:28;;;;;;;;;;;;;;;;;;6234942;22;20005;-86
2023/04/26 02:38:54;;;;;;;;;;;;;;;;;;6233176;22;19923;-88
2023/04/26 02:41:20;;;;;;;;;;;;;;;;;;6206823;22;19972;-87
2023/04/26 02:43:46;;;;;;;;;;;;;;;;;;6212271;22;19922;-88
2023/04/26 02:46:13;;;;;;;;;;;;;;;;;;6231328;22;19919;-87
2023/04/26 02:48:39;;;;;;;;;;;;;;;;;;6210151;22;19930;-88
2023/04/26 02:51:05;;;;;;;;;;;;;;;;;;6206726;22;19926;-87
2023/04/26 02:53:31;;;;;;;;;;;;;;;;;;6233372;22;19916;-88
2023/04/26 02:55:59;;;;;;;;;;;;;;;;;;6232883;22;20320;-88
2023/04/26 02:58:25;;;;;;;;;;;;;;;;;;6234353;22;20395;-88
2023/04/26 03:00:53;;;;;;;;;;;;;;;;;;6207768;22;19919;-88
2023/04/26 03:03:19;;;;;;;;;;;;;;;;;;6231008;22;20386;-88
2023/04/26 03:05:45;;;;;;;;;;;;;;;;;;6208448;22;19926;-87
2023/04/26 03:08:11;;;;;;;;;;;;;;;;;;6207881;22;20245;-89
2023/04/26 03:10:36;;;;;;;;;;;;;;;;;;6209991;22;19919;-88
2023/04/26 03:13:03;;;;;;;;;;;;;;;;;;6231663;22;19927;-88
2023/04/26 03:15:29;;;;;;;;;;;;;;;;;;6236252;22;19923;-87
2023/04/26 03:17:56;;;;;;;;;;;;;;;;;;6212612;22;19923;-88
2023/04/26 03:20:22;;;;;;;;;;;;;;;;;;6235454;22;20745;-88
2023/04/26 03:22:48;;;;;;;;;;;;;;;;;;6237445;22;19919;-88
2023/04/26 03:25:15;;;;;;;;;;;;;;;;;;6208834;22;19919;-88
2023/04/26 03:27:41;;;;;;;;;;;;;;;;;;6210169;22;20294;-88
2023/04/26 03:30:07;;;;;;;;;;;;;;;;;;6209779;22;19915;-88
2023/04/26 03:32:32;;;;;;;;;;;;;;;;;;6236297;22;20359;-87
2023/04/26 03:34:58;;;;;;;;;;;;;;;;;;6234589;22;20296;-87
2023/04/26 03:37:24;;;;;;;;;;;;;;;;;;6213052;22;19926;-87
2023/04/26 03:39:52;;;;;;;;;;;;;;;;;;6213495;22;19919;-87
2023/04/26 03:42:18;;;;;;;;;;;;;;;;;;6211273;22;20428;-87
2023/04/26 03:44:44;;;;;;;;;;;;;;;;;;6214646;22;20312;-89
2023/04/26 03:47:10;;;;;;;;;;;;;;;;;;6235801;22;19919;-88
2023/04/26 03:49:36;;;;;;;;;;;;;;;;;;6240143;22;19919;-88
2023/04/26 03:52:02;;;;;;;;;;;;;;;;;;6213211;22;19958;-87
2023/04/26 03:54:28;;;;;;;;;;;;;;;;;;6240570;22;19986;-88
2023/04/26 03:56:54;;;;;;;;;;;;;;;;;;6241255;22;19947;-87
2023/04/26 03:59:20;;;;;;;;;;;;;;;;;;6237960;22;19927;-88
2023/04/26 04:01:46;;;;;;;;;;;;;;;;;;6214808;22;19955;-88
2023/04/26 04:04:11;;;;;;;;;;;;;;;;;;6209578;22;19927;-87
2023/04/26 04:06:38;;;;;;;;;;;;;;;;;;6238421;22;20346;-88
2023/04/26 04:09:07;;;;;;;;;;;;;;;;;;6209911;22;19919;-87
2023/04/26 04:11:33;;;;;;;;;;;;;;;;;;6212046;22;19923;-88
2023/04/26 04:13:59;;;;;;;;;;;;;;;;;;6236255;22;19927;-87
2023/04/26 04:16:25;;;;;;;;;;;;;;;;;;6212545;22;19919;-88
2023/04/26 04:18:51;;;;;;;;;;;;;;;;;;6235828;22;20300;-89
2023/04/26 04:21:17;;;;;;;;;;;;;;;;;;6235716;22;20482;-87
2023/04/26 04:23:43;;;;;;;;;;;;;;;;;;6210344;22;19927;-88
2023/04/26 04:26:11;;;;;;;;;;;;;;;;;;6205360;22;20420;-88
2023/04/26 04:28:37;;;;;;;;;;;;;;;;;;6211143;22;19919;-88
2023/04/26 04:31:03;;;;;;;;;;;;;;;;;;6207417;22;19923;-88
2023/04/26 04:33:29;;;;;;;;;;;;;;;;;;6235485;22;20113;-88
2023/04/26 04:35:55;;;;;;;;;;;;;;;;;;6232875;22;20369;-88
2023/04/26 04:38:21;;;;;;;;;;;;;;;;;;6233061;22;19968;-88
2023/04/26 04:40:46;;;;;;;;;;;;;;;;;;6210251;22;19919;-88
2023/04/26 04:43:14;;;;;;;;;;;;;;;;;;6235625;22;19919;-88
2023/04/26 04:45:40;;;;;;;;;;;;;;;;;;6236758;22;19947;-88
2023/04/26 04:48:06;;;;;;;;;;;;;;;;;;6209513;22;19926;-87
2023/04/26 04:50:32;;;;;;;;;;;;;;;;;;6238683;22;19923;-87
2023/04/26 04:52:58;;;;;;;;;;;;;;;;;;6210947;22;20367;-88
2023/04/26 04:55:24;;;;;;;;;;;;;;;;;;6214593;22;19919;-88
2023/04/26 04:57:50;;;;;;;;;;;;;;;;;;6238795;22;19919;-87
2023/04/26 05:00:16;;;;;;;;;;;;;;;;;;6210345;22;20919;-87
2023/04/26 05:02:42;;;;;;;;;;;;;;;;;;6239720;22;19998;-88
2023/04/26 05:05:09;;;;;;;;;;;;;;;;;;6211795;22;19919;-88
2023/04/26 05:07:35;;;;;;;;;;;;;;;;;;6240731;22;19955;-88
2023/04/26 05:10:01;;;;;;;;;;;;;;;;;;6236164;22;20301;-88
2023/04/26 05:12:27;;;;;;;;;;;;;;;;;;6238905;22;19992;-88
2023/04/26 05:14:53;;;;;;;;;;;;;;;;;;6213162;22;19955;-87
2023/04/26 05:17:19;;;;;;;;;;;;;;;;;;6211151;22;19968;-87
2023/04/26 05:19:46;;;;;;;;;;;;;;;;;;6237015;22;19915;-88
2023/04/26 05:22:17;;;;;;;;;;;;;;;;;;6211149;22;19915;-88
2023/04/26 05:24:43;;;;;;;;;;;;;;;;;;6211609;22;20040;-88
2023/04/26 05:27:09;;;;;;;;;;;;;;;;;;6209416;22;19973;-87
2023/04/26 05:29:35;;;;;;;;;;;;;;;;;;6211838;22;19930;-88
2023/04/26 05:32:01;;;;;;;;;;;;;;;;;;6209285;22;19923;-87
2023/04/26 05:34:27;;;;;;;;;;;;;;;;;;6236983;22;19915;-87
2023/04/26 05:36:53;;;;;;;;;;;;;;;;;;6212199;22;19923;-88
2023/04/26 05:39:20;;;;;;;;;;;;;;;;;;6212206;22;19919;-87
2023/04/26 05:41:46;;;;;;;;;;;;;;;;;;6213812;22;19919;-87
2023/04/26 05:44:11;;;;;;;;;;;;;;;;;;6213850;22;20255;-88
2023/04/26 05:46:37;;;;;;;;;;;;;;;;;;6214593;22;19916;-87
2023/04/26 05:49:03;;;;;;;;;;;;;;;;;;6238265;22;19968;-88
2023/04/26 05:51:29;;;;;;;;;;;;;;;;;;6239725;22;19923;-88
2023/04/26 05:53:56;;;;;;;;;;;;;;;;;;6213957;22;19919;-88
2023/04/26 05:56:23;;;;;;;;;;;;;;;;;;6211067;22;19919;-88
2023/04/26 05:58:49;;;;;;;;;;;;;;;;;;6239399;22;19919;-88
2023/04/26 06:01:15;;;;;;;;;;;;;;;;;;6211695;22;19923;-89
2023/04/26 06:03:41;;;;;;;;;;;;;;;;;;6239560;22;20328;-89
2023/04/26 06:06:07;;;;;;;;;;;;;;;;;;6211927;22;19994;-88
2023/04/26 06:08:33;;;;;;;;;;;;;;;;;;6213389;22;19923;-88
2023/04/26 06:10:59;;;;;;;;;;;;;;;;;;6212551;22;19930;-88
2023/04/26 06:13:25;;;;;;;;;;;;;;;;;;6214373;22;19994;-88
2023/04/26 06:15:51;;;;;;;;;;;;;;;;;;6214343;22;19919;-89
2023/04/26 06:18:17;;;;;;;;;;;;;;;;;;6235134;22;19985;-88
2023/04/26 06:20:43;;;;;;;;;;;;;;;;;;6236801;22;19926;-88
2023/04/26 06:23:09;;;;;;;;;;;;;;;;;;6209927;22;19930;-88
2023/04/26 06:25:36;;;;;;;;;;;;;;;;;;6236491;22;19923;-88
2023/04/26 06:28:02;;;;;;;;;;;;;;;;;;6234940;22;20611;-88
2023/04/26 06:30:28;;;;;;;;;;;;;;;;;;6212006;22;19919;-87
2023/04/26 06:32:54;;;;;;;;;;;;;;;;;;6210931;22;19926;-89
2023/04/26 06:35:23;;;;;;;;;;;;;;;;;;6234118;22;19919;-89
2023/04/26 06:37:49;;;;;;;;;;;;;;;;;;6237932;22;20331;-89
2023/04/26 06:40:15;;;;;;;;;;;;;;;;;;6235020;22;19982;-88
2023/04/26 06:42:41;;;;;;;;;;;;;;;;;;6212731;22;20000;-88
2023/04/26 06:45:07;;;;;;;;;;;;;;;;;;6210575;22;19925;-88
2023/04/26 06:47:33;;;;;;;;;;;;;;;;;;6238799;22;19915;-89
2023/04/26 06:49:59;;;;;;;;;;;;;;;;;;6237591;22;19942;-88
2023/04/26 06:52:25;;;;;;;;;;;;;;;;;;6241694;22;19923;-88
2023/04/26 06:54:51;;;;;;;;;;;;;;;;;;6239922;22;19919;-89
2023/04/26 06:57:17;;;;;;;;;;;;;;;;;;6211440;22;19927;-88
2023/04/26 06:59:44;;;;;;;;;;;;;;;;;;6214731;22;19919;-88
2023/04/26 07:02:10;;;;;;;;;;;;;;;;;;6238621;22;19927;-88
2023/04/26 07:04:36;;;;;;;;;;;;;;;;;;6216204;22;19994;-88
2023/04/26 07:07:02;;;;;;;;;;;;;;;;;;6241205;22;20717;-88
2023/04/26 07:09:28;;;;;;;;;;;;;;;;;;6241590;22;20336;-88
2023/04/26 07:11:54;;;;;;;;;;;;;;;;;;6216919;22;19970;-87
2023/04/26 07:14:20;;;;;;;;;;;;;;;;;;6239103;22;19981;-88
2023/04/26 07:16:45;;;;;;;;;;;;;;;;;;6216504;22;20252;-88
2023/04/26 07:19:11;;;;;;;;;;;;;;;;;;6212169;22;19919;-89
2023/04/26 07:21:37;;;;;;;;;;;;;;;;;;6214647;22;19915;-88
2023/04/26 07:24:03;;;;;;;;;;;;;;;;;;6211216;22;19924;-88
2023/04/26 07:26:30;;;;;;;;;;;;;;;;;;6212917;22;19932;-88
2023/04/26 07:28:59;;;;;;;;;;;;;;;;;;6241454;22;20230;-89
2023/04/26 07:31:25;;;;;;;;;;;;;;;;;;6216662;22;20053;-88
2023/04/26 07:33:51;;;;;;;;;;;;;;;;;;6241957;22;19966;-90
2023/04/26 07:36:17;;;;;;;;;;;;;;;;;;6238038;22;19919;-89
2023/04/26 07:38:43;;;;;;;;;;;;;;;;;;6217688;22;19915;-90
2023/04/26 07:41:11;;;;;;;;;;;;;;;;;;6215751;22;20335;-90
2023/04/26 07:43:38;;;;;;;;;;;;;;;;;;6217516;22;20425;-89
2023/04/26 07:46:04;;;;;;;;;;;;;;;;;;6216400;22;19969;-90
2023/04/26 07:48:30;;;;;;;;;;;;;;;;;;6242813;22;20340;-90
2023/04/26 07:50:58;;;;;;;;;;;;;;;;;;6243296;22;20001;-89
2023/04/26 07:53:24;;;;;;;;;;;;;;;;;;6218455;22;19980;-89
2023/04/26 07:55:50;;;;;;;;;;;;;;;;;;6217181;22;20020;-90
2023/04/26 07:58:18;;;;;;;;;;;;;;;;;;6240368;22;19919;-89
2023/04/26 08:00:44;;;;;;;;;;;;;;;;;;6216530;22;19916;-89
2023/04/26 08:03:11;;;;;;;;;;;;;;;;;;6239610;22;19934;-91
2023/04/26 08:05:37;;;;;;;;;;;;;;;;;;6215362;22;19916;-89
2023/04/26 08:08:03;;;;;;;;;;;;;;;;;;6214824;22;19986;-91
2023/04/26 08:10:29;;;;;;;;;;;;;;;;;;6243226;22;19919;-88
2023/04/26 08:13:02;;;;;;;;;;;;;;;;;;6217326;22;19954;-89
2023/04/26 08:15:28;;;;;;;;;;;;;;;;;;6214081;22;19922;-89
2023/04/26 08:17:54;;;;;;;;;;;;;;;;;;6239913;22;20403;-89
2023/04/26 08:20:20;;;;;;;;;;;;;;;;;;6211620;22;19919;-89
2023/04/26 08:22:46;;;;;;;;;;;;;;;;;;6240559;22;20589;-90
2023/04/26 08:25:12;;;;;;;;;;;;;;;;;;6213068;22;19919;-90
2023/04/26 08:27:39;;;;;;;;;;;;;;;;;;6215245;22;19994;-89
2023/04/26 08:30:05;;;;;;;;;;;;;;;;;;6213318;22;19919;-88
2023/04/26 08:32:32;;;;;;;;;;;;;;;;;;6215420;22;20016;-89
2023/04/26 08:34:59;;;;;;;;;;;;;;;;;;6212429;22;19925;-88
2023/04/26 08:37:25;;;;;;;;;;;;;;;;;;6215717;22;19926;-90
2023/04/26 08:39:51;;;;;;;;;;;;;;;;;;6239987;22;20244;-90
2023/04/26 08:42:17;;;;;;;;;;;;;;;;;;6235433;22;19954;-90
2023/04/26 08:44:43;;;;;;;;;;;;;;;;;;6212868;22;19922;-89
2023/04/26 08:47:09;;;;;;;;;;;;;;;;;;6230419;22;19930;-89
2023/04/26 08:49:35;;;;;;;;;;;;;;;;;;6212380;22;19926;-89
2023/04/26 08:52:01;;;;;;;;;;;;;;;;;;6238255;22;20457;-89
2023/04/26 08:54:27;;;;;;;;;;;;;;;;;;6239268;22;19915;-89
2023/04/26 08:56:53;;;;;;;;;;;;;;;;;;6240447;22;20248;-90
2023/04/26 08:59:19;;;;;;;;;;;;;;;;;;6235794;22;19946;-89
2023/04/26 09:01:45;;;;;;;;;;;;;;;;;;6215269;22;19973;-90
2023/04/26 09:04:11;;;;;;;;;;;;;;;;;;6211800;22;20279;-90
2023/04/26 09:06:37;;;;;;;;;;;;;;;;;;6213703;22;19919;-90
2023/04/26 09:09:03;;;;;;;;;;;;;;;;;;6211375;22;20269;-89
2023/04/26 09:11:29;;;;;;;;;;;;;;;;;;6214580;22;20375;-90
2023/04/26 09:13:55;;;;;;;;;;;;;;;;;;6214014;22;19994;-90
2023/04/26 09:16:21;;;;;;;;;;;;;;;;;;6211383;22;20671;-90
2023/04/26 09:18:47;;;;;;;;;;;;;;;;;;6214344;22;19919;-90
2023/04/26 09:21:16;;;;;;;;;;;;;;;;;;6235132;22;19929;-89
2023/04/26 09:23:42;;;;;;;;;;;;;;;;;;6209446;22;19998;-90
2023/04/26 09:26:08;;;;;;;;;;;;;;;;;;6209426;22;19950;-90
2023/04/26 09:28:35;;;;;;;;;;;;;;;;;;6239517;22;20336;-91
2023/04/26 09:31:01;;;;;;;;;;;;;;;;;;6211540;22;19998;-90
2023/04/26 09:33:27;;;;;;;;;;;;;;;;;;6213016;22;19973;-91
2023/04/26 09:35:53;;;;;;;;;;;;;;;;;;6213386;22;19990;-90
2023/04/26 09:38:19;;;;;;;;;;;;;;;;;;6213385;22;20424;-90
2023/04/26 09:40:45;;;;;;;;;;;;;;;;;;6212862;22;19916;-89
2023/04/26 09:43:11;;;;;;;;;;;;;;;;;;6214246;22;19922;-90
2023/04/26 09:45:37;;;;;;;;;;;;;;;;;;6242274;22;19954;-90
2023/04/26 09:48:03;;;;;;;;;;;;;;;;;;6215013;22;19915;-90
2023/04/26 09:50:29;;;;;;;;;;;;;;;;;;6216468;22;20234;-90
2023/04/26 09:52:55;;;;;;;;;;;;;;;;;;6215925;22;20283;-90
2023/04/26 09:55:21;;;;;;;;;;;;;;;;;;6239535;22;20233;-89
2023/04/26 09:57:46;;;;;;;;;;;;;;;;;;6218792;22;19978;-90
2023/04/26 10:00:13;;;;;;;;;;;;;;;;;;6228127;22;19965;-90
2023/04/26 10:02:39;;;;;;;;;;;;;;;;;;6238145;22;19930;-89
2023/04/26 10:05:06;;;;;;;;;;;;;;;;;;6209524;22;19959;-90
2023/04/26 10:07:32;;;;;;;;;;;;;;;;;;6214635;22;20310;-89
2023/04/26 10:09:58;;;;;;;;;;;;;;;;;;6236612;22;20374;-90
2023/04/26 10:12:24;;;;;;;;;;;;;;;;;;6236880;22;19923;-89
2023/04/26 10:14:50;;;;;;;;;;;;;;;;;;6212737;22;20375;-89
2023/04/26 10:17:16;;;;;;;;;;;;;;;;;;6207754;22;19981;-89
2023/04/26 10:19:45;;;;;;;;;;;;;;;;;;6211975;22;19926;-89
2023/04/26 10:22:11;;;;;;;;;;;;;;;;;;6207744;22;19919;-88
2023/04/26 10:24:37;;;;;;;;;;;;;;;;;;6209982;22;20393;-88
2023/04/26 10:27:04;;;;;;;;;;;;;;;;;;6207316;22;20358;-90
2023/04/26 10:29:30;;;;;;;;;;;;;;;;;;6209908;22;19963;-88
2023/04/26 10:31:56;;;;;;;;;;;;;;;;;;6235014;22;20291;-89
2023/04/26 10:34:22;;;;;;;;;;;;;;;;;;6207807;22;19919;-89
2023/04/26 10:36:48;;;;;;;;;;;;;;;;;;6210923;22;20251;-89
2023/04/26 10:39:14;;;;;;;;;;;;;;;;;;6208213;22;19925;-90
2023/04/26 10:41:40;;;;;;;;;;;;;;;;;;6211876;22;20324;-88
2023/04/26 10:44:06;;;;;;;;;;;;;;;;;;6209453;22;19965;-90
2023/04/26 10:46:32;;;;;;;;;;;;;;;;;;6238304;22;19919;-89
2023/04/26 10:48:58;;;;;;;;;;;;;;;;;;6209715;22;19998;-90
2023/04/26 10:51:24;;;;;;;;;;;;;;;;;;6209672;22;19923;-89
2023/04/26 10:53:53;;;;;;;;;;;;;;;;;;6210657;22;19946;-90
2023/04/26 10:56:18;;;;;;;;;;;;;;;;;;6210514;22;19980;-89
2023/04/26 10:58:45;;;;;;;;;;;;;;;;;;6213453;22;19915;-90
2023/04/26 11:01:12;;;;;;;;;;;;;;;;;;6210648;22;19923;-89
2023/04/26 11:03:38;;;;;;;;;;;;;;;;;;6238387;22;19949;-88
2023/04/26 11:06:04;;;;;;;;;;;;;;;;;;6210633;22;20255;-90
2023/04/26 11:08:31;;;;;;;;;;;;;;;;;;6238587;22;19954;-89
2023/04/26 11:10:57;;;;;;;;;;;;;;;;;;6211309;22;19919;-89
2023/04/26 11:13:23;;;;;;;;;;;;;;;;;;6209587;22;19923;-90
2023/04/26 11:15:48;;;;;;;;;;;;;;;;;;6237196;22;19972;-90
2023/04/26 11:18:14;;;;;;;;;;;;;;;;;;6233925;22;20623;-90
2023/04/26 11:20:40;;;;;;;;;;;;;;;;;;6210041;22;19919;-89
2023/04/26 11:23:06;;;;;;;;;;;;;;;;;;6209176;22;19988;-90
2023/04/26 11:25:32;;;;;;;;;;;;;;;;;;6207518;22;20344;-90
2023/04/26 11:27:59;;;;;;;;;;;;;;;;;;6237385;22;19926;-88
2023/04/26 11:30:25;;;;;;;;;;;;;;;;;;6212793;22;19919;-91
2023/04/26 11:32:51;;;;;;;;;;;;;;;;;;6236970;22;19923;-90
2023/04/26 11:35:16;;;;;;;;;;;;;;;;;;6237293;22;19930;-90
2023/04/26 11:37:42;;;;;;;;;;;;;;;;;;6241829;22;19926;-88
2023/04/26 11:40:09;;;;;;;;;;;;;;;;;;6238275;22;19919;-89
2023/04/26 11:42:35;;;;;;;;;;;;;;;;;;6216016;22;19920;-90
2023/04/26 11:45:01;;;;;;;;;;;;;;;;;;6214313;22;19926;-91
2023/04/26 11:47:29;;;;;;;;;;;;;;;;;;6215393;22;19919;-90
2023/04/26 11:49:55;;;;;;;;;;;;;;;;;;6217720;22;19988;-90
2023/04/26 11:52:21;;;;;;;;;;;;;;;;;;6213591;22;20363;-90
2023/04/26 11:54:47;;;;;;;;;;;;;;;;;;6216486;22;19946;-89
2023/04/26 11:57:15;;;;;;;;;;;;;;;;;;6214726;22;19969;-90
2023/04/26 11:59:42;;;;;;;;;;;;;;;;;;6241239;22;19916;-90
2023/04/26 12:02:08;;;;;;;;;;;;;;;;;;6212471;22;19919;-90
2023/04/26 12:04:34;;;;;;;;;;;;;;;;;;6240098;22;20308;-90
2023/04/26 12:07:00;;;;;;;;;;;;;;;;;;6213296;22;19958;-90
2023/04/26 12:09:30;;;;;;;;;;;;;;;;;;6240978;22;20270;-90
2023/04/26 12:11:58;;;;;;;;;;;;;;;;;;6216268;22;19968;-90
2023/04/26 12:14:24;;;;;;;;;;;;;;;;;;6210718;22;19946;-90
2023/04/26 12:16:50;;;;;;;;;;;;;;;;;;6212167;22;19926;-90
2023/04/26 12:19:16;;;;;;;;;;;;;;;;;;6207452;22;19919;-89
2023/04/26 12:21:42;;;;;;;;;;;;;;;;;;6214968;22;19916;-90
2023/04/26 12:24:08;;;;;;;;;;;;;;;;;;6233919;22;19976;-91
2023/04/26 12:26:34;;;;;;;;;;;;;;;;;;6208635;22;19919;-90
2023/04/26 12:29:00;;;;;;;;;;;;;;;;;;6236884;22;19994;-90
2023/04/26 12:31:26;;;;;;;;;;;;;;;;;;6215631;22;19985;-90
2023/04/26 12:33:55;;;;;;;;;;;;;;;;;;6241343;22;19923;-90
2023/04/26 12:36:21;;;;;;;;;;;;;;;;;;6208464;22;19957;-90
2023/04/26 12:38:47;;;;;;;;;;;;;;;;;;6213388;22;19982;-90
2023/04/26 12:41:13;;;;;;;;;;;;;;;;;;6232806;22;20013;-91
2023/04/26 12:43:39;;;;;;;;;;;;;;;;;;6212870;22;20008;-89
2023/04/26 12:46:05;;;;;;;;;;;;;;;;;;6210370;22;20069;-91
2023/04/26 12:48:31;;;;;;;;;;;;;;;;;;6213523;22;20655;-90
2023/04/26 12:50:57;;;;;;;;;;;;;;;;;;6214057;22;19919;-90
2023/04/26 12:53:23;;;;;;;;;;;;;;;;;;6212139;22;19946;-89
2023/04/26 12:55:49;;;;;;;;;;;;;;;;;;6214094;22;19926;-90
2023/04/26 12:58:15;;;;;;;;;;;;;;;;;;6208614;22;19966;-90
2023/04/26 13:00:41;;;;;;;;;;;;;;;;;;6234767;22;19945;-90
2023/04/26 13:06:33;;;;;;;;;;;;;;;;;;6195498;22;20398;-86
2023/04/26 13:09:01;;;;;;;;;;;;;;;;;;6256263;22;20017;-85
2023/04/26 13:11:48;;;;;;;;;;;;;;;;;;6202003;22;19923;-86
2023/04/26 13:14:24;;;;;;;;;;;;;;;;;;6204149;22;20456;-87
2023/04/26 13:16:56;;;;;;;;;;;;;;;;;;6208572;22;19981;-87
2023/04/26 13:22:50;;;;;;;;;;;;;;;;;;6271196;22;20382;-86
2023/04/26 13:25:30;;;;;;;;;;;;;;;;;;6208467;22;19926;-85
2023/04/26 13:27:59;;;;;;;;;;;;;;;;;;6233458;22;19966;-85
2023/04/26 13:30:31;;;;;;;;;;;;;;;;;;6212533;22;19923;-86
2023/04/26 13:32:57;;;;;;;;;;;;;;;;;;6209875;22;19965;-85
2023/04/26 13:35:28;;;;;;;;;;;;;;;;;;6212124;22;19974;-85
2023/04/26 13:37:55;;;;;;;;;;;;;;;;;;6212887;22;19915;-85
2023/04/26 13:40:21;;;;;;;;;;;;;;;;;;6236088;22;19922;-85
2023/04/26 13:42:50;;;;;;;;;;;;;;;;;;6238778;22;19919;-86
2023/04/26 13:45:21;;;;;;;;;;;;;;;;;;6210068;22;19965;-86
2023/04/26 13:47:50;;;;;;;;;;;;;;;;;;6212553;22;19930;-84
2023/04/26 13:50:16;;;;;;;;;;;;;;;;;;6235608;22;19980;-86
2023/04/26 13:52:48;;;;;;;;;;;;;;;;;;6212050;22;19933;-85
2023/04/26 13:55:14;;;;;;;;;;;;;;;;;;6208138;22;20321;-85
2023/04/26 13:58:04;;;;;;;;;;;;;;;;;;6211790;22;19915;-85
2023/04/26 14:00:32;;;;;;;;;;;;;;;;;;6236403;22;19994;-85
2023/04/26 14:03:07;;;;;;;;;;;;;;;;;;6209846;22;19924;-85
2023/04/26 14:05:49;;;;;;;;;;;;;;;;;;6237664;22;20256;-86
2023/04/26 14:08:15;;;;;;;;;;;;;;;;;;6209476;22;20776;-86
2023/04/26 14:10:44;;;;;;;;;;;;;;;;;;6209314;22;20347;-85
2023/04/26 14:13:15;;;;;;;;;;;;;;;;;;6205591;22;20375;-85
2023/04/26 14:15:45;;;;;;;;;;;;;;;;;;6232436;22;19919;-86
2023/04/26 14:18:11;;;;;;;;;;;;;;;;;;6204144;22;19977;-85
2023/04/26 14:20:43;;;;;;;;;;;;;;;;;;6208767;22;20323;-85
2023/04/26 14:23:30;;;;;;;;;;;;;;;;;;6260396;22;19986;-85
2023/04/26 14:26:07;;;;;;;;;;;;;;;;;;6207179;22;20361;-85
2023/04/26 14:28:46;;;;;;;;;;;;;;;;;;6234536;22;19965;-85
2023/04/26 14:31:12;;;;;;;;;;;;;;;;;;6230370;22;20414;-85
2023/04/26 14:36:35;;;;;;;;;;;;;;;;;;6231579;22;19926;-85
2023/04/26 14:39:07;;;;;;;;;;;;;;;;;;6204490;22;19955;-85
2023/04/26 14:41:36;;;;;;;;;;;;;;;;;;6208478;22;19942;-85
2023/04/26 14:44:14;;;;;;;;;;;;;;;;;;6206811;22;20020;-85
2023/04/26 14:46:49;;;;;;;;;;;;;;;;;;6141340;23;20019;-85
2023/04/26 14:49:30;;;;;;;;;;;;;;;;;;6118927;23;19924;-85
2023/04/26 14:54:50;;;;;;;;;;;;;;;;;;6132698;23;20043;-84
2023/04/26 14:57:16;;;;;;;;;;;;;;;;;;6115925;23;19924;-85
2023/04/26 14:59:45;;;;;;;;;;;;;;;;;;6116920;23;19920;-84
2023/04/26 15:02:25;;;;;;;;;;;;;;;;;;6116395;23;19920;-85
2023/04/26 15:04:51;;;;;;;;;;;;;;;;;;6140429;23;19924;-85
2023/04/26 15:09:57;;;;;;;;;;;;;;;;;;6265248;22;19923;-91
2023/04/26 15:15:26;;;;;;;;;;;;;;;;;;6256327;22;19949;-86
2023/04/26 15:18:03;;;;;;;;;;;;;;;;;;6210945;22;19925;-85
2023/04/26 15:27:14;;;;;;;;;;;;;;;;;;6149957;23;20050;-85
2023/04/26 15:29:48;;;;;;;;;;;;;;;;;;6093564;23;19970;-83
2023/04/26 15:32:26;;;;;;;;;;;;;;;;;;6084978;23;20409;-85
2023/04/26 15:34:57;;;;;;;;;;;;;;;;;;6082427;23;19952;-84
2023/04/26 15:37:26;;;;;;;;;;;;;;;;;;6151724;23;19916;-84
2023/04/26 15:40:01;;;;;;;;;;;;;;;;;;6180027;23;19953;-86
2023/04/26 15:46:01;;;;;;;;;;;;;;;;;;6115847;23;20426;-87
2023/04/26 15:54:41;;;;;;;;;;;;;;;;;;6157670;23;19928;-86
2023/04/26 16:00:27;;;;;;;;;;;;;;;;;;;;;
2023/04/26 16:03:05;;;;;;;;;;;;;;;;;;6182329;23;19920;-86
2023/04/26 16:08:37;;;;;;;;;;;;;;;;;;6157866;23;19920;-88
2023/04/26 16:11:11;;;;;;;;;;;;;;;;;;6173620;23;19920;-86
2023/04/26 16:16:31;;;;;;;;;;;;;;;;;;6143498;23;19931;-85
2023/04/26 16:19:09;;;;;;;;;;;;;;;;;;6150074;23;19927;-87
2023/04/26 16:33:48;;;;;;;;;;;;;;;;;;6138813;23;20494;-86
2023/04/26 16:36:28;;;;;;;;;;;;;;;;;;6112917;23;20455;-87
2023/04/26 16:38:55;;;;;;;;;;;;;;;;;;6123623;23;19920;-86
2023/04/26 16:47:13;;;;;;;;;;;;;;;;;;6112436;23;20418;-87
2023/04/26 16:49:42;;;;;;;;;;;;;;;;;;6091016;23;19935;-86
2023/04/26 16:52:11;;;;;;;;;;;;;;;;;;6154620;22;19939;-86
2023/04/26 16:54:46;;;;;;;;;;;;;;;;;;6213990;22;19915;-84
2023/04/26 16:57:21;;;;;;;;;;;;;;;;;;6204165;22;20104;-86
2023/04/26 16:59:58;;;;;;;;;;;;;;;;;;6238054;22;19926;-86
2023/04/26 17:02:40;;;;;;;;;;;;;;;;;;;;;
2023/04/26 17:05:18;;;;;;;;;;;;;;;;;;6260459;22;19918;-86
2023/04/26 17:08:00;;;;;;;;;;;;;;;;;;6211086;22;20407;-86
2023/04/26 17:10:38;;;;;;;;;;;;;;;;;;6211903;22;19924;-86
2023/04/26 17:13:05;;;;;;;;;;;;;;;;;;6206372;22;20289;-86
2023/04/26 17:15:33;;;;;;;;;;;;;;;;;;6214606;22;19926;-86
2023/04/26 17:18:03;;;;;;;;;;;;;;;;;;6234958;22;20003;-86
2023/04/26 17:20:51;;;;;;;;;;;;;;;;;;;;;
2023/04/26 17:26:22;;;;;;;;;;;;;;;;;;6216944;22;20665;-86
2023/04/26 17:29:05;;;;;;;;;;;;;;;;;;;;;
2023/04/26 17:31:56;;;;;;;;;;;;;;;;;;6236012;22;19919;-87
2023/04/26 17:35:05;;;;;;;;;;;;;;;;;;6208431;22;20008;-86
2023/04/26 17:37:48;;;;;;;;;;;;;;;;;;6210584;22;19915;-86
2023/04/26 17:46:02;;;;;;;;;;;;;;;;;;6226099;22;19919;-85
2023/04/26 17:48:38;;;;;;;;;;;;;;;;;;6234634;22;20127;-85
2023/04/26 17:51:35;;;;;;;;;;;;;;;;;;6228586;22;20002;-85
2023/04/26 17:53:53;;;;;;;;;;;;;;;;;;6232385;22;19927;-85
2023/04/26 18:14:59;;;;;;;;;;;;;;;;;;6285160;22;19919;-86
2023/04/26 18:20:26;;;;;;;;;;;;;;;;;;6077723;23;19964;-85
2023/04/26 18:26:30;;;;;;;;;;;;;;;;;;6126230;23;19921;-85
2023/04/26 18:31:53;;;;;;;;;;;;;;;;;;6107848;23;20000;-85
2023/04/26 18:34:33;;;;;;;;;;;;;;;;;;6095177;23;19925;-85